sensor_id;sensor_type;location;lat;lon;timestamp;P1;durP1;ratioP1;P2;durP2;ratioP2
21705;SDS011;11014;53.076;18.208;2024-02-21T00:01:04;18.47;;;6.20;;
21705;SDS011;11014;53.076;18.208;2024-02-21T00:03:46;19.02;;;6.28;;
21705;SDS011;11014;53.076;18.208;2024-02-21T00:06:15;19.80;;;6.38;;
21705;SDS011;11014;53.076;18.208;2024-02-21T00:08:43;19.35;;;6.13;;
21705;SDS011;11014;53.076;18.208;2024-02-21T00:11:12;14.68;;;6.00;;
21705;SDS011;11014;53.076;18.208;2024-02-21T00:13:41;18.50;;;6.50;;
21705;SDS011;11014;53.076;18.208;2024-02-21T00:16:10;18.70;;;5.55;;
21705;SDS011;11014;53.076;18.208;2024-02-21T00:18:39;18.48;;;5.90;;
21705;SDS011;11014;53.076;18.208;2024-02-21T00:21:18;16.58;;;7.53;;
21705;SDS011;11014;53.076;18.208;2024-02-21T00:23:49;23.17;;;9.23;;
21705;SDS011;11014;53.076;18.208;2024-02-21T00:26:19;13.07;;;5.68;;
21705;SDS011;11014;53.076;18.208;2024-02-21T00:31:43;17.48;;;5.72;;
21705;SDS011;11014;53.076;18.208;2024-02-21T00:34:14;18.40;;;6.38;;
21705;SDS011;11014;53.076;18.208;2024-02-21T00:36:43;23.00;;;6.57;;
21705;SDS011;11014;53.076;18.208;2024-02-21T00:39:12;20.88;;;7.03;;
21705;SDS011;11014;53.076;18.208;2024-02-21T00:41:40;16.20;;;6.20;;
21705;SDS011;11014;53.076;18.208;2024-02-21T00:44:12;15.55;;;6.07;;
21705;SDS011;11014;53.076;18.208;2024-02-21T00:46:43;20.27;;;6.75;;
21705;SDS011;11014;53.076;18.208;2024-02-21T00:49:12;17.55;;;6.85;;
21705;SDS011;11014;53.076;18.208;2024-02-21T00:57:29;21.02;;;7.00;;
21705;SDS011;11014;53.076;18.208;2024-02-21T00:59:58;19.23;;;6.68;;
21705;SDS011;11014;53.076;18.208;2024-02-21T01:02:26;23.90;;;6.50;;
21705;SDS011;11014;53.076;18.208;2024-02-21T01:07:50;19.38;;;6.57;;
21705;SDS011;11014;53.076;18.208;2024-02-21T01:10:32;26.30;;;7.57;;
21705;SDS011;11014;53.076;18.208;2024-02-21T01:13:01;23.15;;;7.35;;
21705;SDS011;11014;53.076;18.208;2024-02-21T01:15:34;26.65;;;7.38;;
21705;SDS011;11014;53.076;18.208;2024-02-21T01:21:00;20.05;;;7.30;;
21705;SDS011;11014;53.076;18.208;2024-02-21T01:23:29;26.10;;;7.55;;
21705;SDS011;11014;53.076;18.208;2024-02-21T01:25:57;24.67;;;7.50;;
21705;SDS011;11014;53.076;18.208;2024-02-21T01:28:26;23.95;;;7.55;;
21705;SDS011;11014;53.076;18.208;2024-02-21T01:30:55;19.13;;;6.90;;
21705;SDS011;11014;53.076;18.208;2024-02-21T01:33:23;19.17;;;7.47;;
21705;SDS011;11014;53.076;18.208;2024-02-21T01:35:52;27.08;;;6.95;;
21705;SDS011;11014;53.076;18.208;2024-02-21T01:38:21;22.40;;;7.15;;
21705;SDS011;11014;53.076;18.208;2024-02-21T01:40:52;24.17;;;7.78;;
21705;SDS011;11014;53.076;18.208;2024-02-21T01:43:21;22.75;;;7.78;;
21705;SDS011;11014;53.076;18.208;2024-02-21T01:49:57;19.55;;;7.15;;
21705;SDS011;11014;53.076;18.208;2024-02-21T01:52:25;18.63;;;7.10;;
21705;SDS011;11014;53.076;18.208;2024-02-21T01:54:54;27.70;;;7.82;;
21705;SDS011;11014;53.076;18.208;2024-02-21T01:57:22;35.88;;;8.65;;
21705;SDS011;11014;53.076;18.208;2024-02-21T01:59:52;24.10;;;7.65;;
21705;SDS011;11014;53.076;18.208;2024-02-21T02:05:14;29.67;;;8.10;;
21705;SDS011;11014;53.076;18.208;2024-02-21T02:07:45;28.77;;;8.57;;
21705;SDS011;11014;53.076;18.208;2024-02-21T02:10:14;27.45;;;7.95;;
21705;SDS011;11014;53.076;18.208;2024-02-21T02:12:42;29.92;;;7.75;;
21705;SDS011;11014;53.076;18.208;2024-02-21T02:15:11;21.70;;;7.38;;
21705;SDS011;11014;53.076;18.208;2024-02-21T02:17:39;23.33;;;8.43;;
21705;SDS011;11014;53.076;18.208;2024-02-21T02:20:08;30.45;;;7.93;;
21705;SDS011;11014;53.076;18.208;2024-02-21T02:25:42;23.63;;;7.50;;
21705;SDS011;11014;53.076;18.208;2024-02-21T02:31:05;30.00;;;8.18;;
21705;SDS011;11014;53.076;18.208;2024-02-21T02:36:33;36.55;;;8.40;;
21705;SDS011;11014;53.076;18.208;2024-02-21T02:39:02;31.15;;;7.43;;
21705;SDS011;11014;53.076;18.208;2024-02-21T02:41:34;20.23;;;7.43;;
21705;SDS011;11014;53.076;18.208;2024-02-21T02:44:04;21.92;;;7.55;;
21705;SDS011;11014;53.076;18.208;2024-02-21T02:46:32;34.72;;;8.00;;
21705;SDS011;11014;53.076;18.208;2024-02-21T02:49:02;21.90;;;8.35;;
21705;SDS011;11014;53.076;18.208;2024-02-21T02:51:31;36.67;;;8.35;;
21705;SDS011;11014;53.076;18.208;2024-02-21T02:53:59;26.80;;;7.82;;
21705;SDS011;11014;53.076;18.208;2024-02-21T03:10:52;20.98;;;7.75;;
21705;SDS011;11014;53.076;18.208;2024-02-21T03:13:59;27.45;;;7.20;;
21705;SDS011;11014;53.076;18.208;2024-02-21T03:16:27;24.20;;;8.80;;
21705;SDS011;11014;53.076;18.208;2024-02-21T03:22:05;22.05;;;8.15;;
21705;SDS011;11014;53.076;18.208;2024-02-21T03:24:38;25.33;;;8.55;;
21705;SDS011;11014;53.076;18.208;2024-02-21T03:27:06;21.85;;;7.60;;
21705;SDS011;11014;53.076;18.208;2024-02-21T03:29:35;29.40;;;7.50;;
21705;SDS011;11014;53.076;18.208;2024-02-21T03:32:03;24.38;;;7.72;;
21705;SDS011;11014;53.076;18.208;2024-02-21T03:34:38;23.67;;;7.90;;
21705;SDS011;11014;53.076;18.208;2024-02-21T03:37:06;25.30;;;8.27;;
21705;SDS011;11014;53.076;18.208;2024-02-21T03:39:35;21.52;;;7.43;;
21705;SDS011;11014;53.076;18.208;2024-02-21T03:42:08;35.67;;;9.65;;
21705;SDS011;11014;53.076;18.208;2024-02-21T03:44:36;24.60;;;8.90;;
21705;SDS011;11014;53.076;18.208;2024-02-21T03:47:05;24.40;;;8.18;;
21705;SDS011;11014;53.076;18.208;2024-02-21T03:49:34;25.00;;;8.50;;
21705;SDS011;11014;53.076;18.208;2024-02-21T03:52:03;27.27;;;8.45;;
21705;SDS011;11014;53.076;18.208;2024-02-21T03:54:32;26.13;;;8.32;;
21705;SDS011;11014;53.076;18.208;2024-02-21T03:57:00;31.63;;;8.93;;
21705;SDS011;11014;53.076;18.208;2024-02-21T03:59:29;27.95;;;8.20;;
21705;SDS011;11014;53.076;18.208;2024-02-21T04:01:57;28.95;;;8.40;;
21705;SDS011;11014;53.076;18.208;2024-02-21T04:04:27;26.60;;;8.07;;
21705;SDS011;11014;53.076;18.208;2024-02-21T04:06:55;29.20;;;8.80;;
21705;SDS011;11014;53.076;18.208;2024-02-21T04:09:24;18.42;;;6.32;;
21705;SDS011;11014;53.076;18.208;2024-02-21T04:14:50;24.83;;;8.45;;
21705;SDS011;11014;53.076;18.208;2024-02-21T04:17:18;17.02;;;7.47;;
21705;SDS011;11014;53.076;18.208;2024-02-21T04:19:47;23.83;;;8.50;;
21705;SDS011;11014;53.076;18.208;2024-02-21T04:22:16;23.90;;;8.85;;
21705;SDS011;11014;53.076;18.208;2024-02-21T04:24:44;22.63;;;8.35;;
21705;SDS011;11014;53.076;18.208;2024-02-21T04:27:12;25.73;;;9.77;;
21705;SDS011;11014;53.076;18.208;2024-02-21T04:29:41;26.75;;;8.93;;
21705;SDS011;11014;53.076;18.208;2024-02-21T04:32:10;27.98;;;9.38;;
21705;SDS011;11014;53.076;18.208;2024-02-21T04:34:40;28.35;;;9.45;;
21705;SDS011;11014;53.076;18.208;2024-02-21T04:37:09;30.27;;;9.00;;
21705;SDS011;11014;53.076;18.208;2024-02-21T04:39:38;20.60;;;8.80;;
21705;SDS011;11014;53.076;18.208;2024-02-21T04:42:06;27.25;;;8.73;;
21705;SDS011;11014;53.076;18.208;2024-02-21T04:44:35;24.63;;;9.20;;
21705;SDS011;11014;53.076;18.208;2024-02-21T04:47:03;22.10;;;9.02;;
21705;SDS011;11014;53.076;18.208;2024-02-21T04:49:32;25.70;;;8.68;;
21705;SDS011;11014;53.076;18.208;2024-02-21T04:52:02;20.13;;;8.43;;
21705;SDS011;11014;53.076;18.208;2024-02-21T04:54:31;23.10;;;8.32;;
21705;SDS011;11014;53.076;18.208;2024-02-21T04:57:00;21.23;;;8.30;;
21705;SDS011;11014;53.076;18.208;2024-02-21T04:59:28;24.77;;;9.00;;
21705;SDS011;11014;53.076;18.208;2024-02-21T05:01:57;21.70;;;7.95;;
21705;SDS011;11014;53.076;18.208;2024-02-21T05:04:29;23.10;;;9.77;;
21705;SDS011;11014;53.076;18.208;2024-02-21T05:10:17;24.92;;;8.70;;
21705;SDS011;11014;53.076;18.208;2024-02-21T05:12:47;22.20;;;8.25;;
21705;SDS011;11014;53.076;18.208;2024-02-21T05:15:17;20.88;;;8.38;;
21705;SDS011;11014;53.076;18.208;2024-02-21T05:17:45;27.67;;;8.82;;
21705;SDS011;11014;53.076;18.208;2024-02-21T05:20:14;20.88;;;8.93;;
21705;SDS011;11014;53.076;18.208;2024-02-21T05:22:44;22.60;;;8.23;;
21705;SDS011;11014;53.076;18.208;2024-02-21T05:25:14;22.33;;;8.25;;
21705;SDS011;11014;53.076;18.208;2024-02-21T05:27:42;21.15;;;8.23;;
21705;SDS011;11014;53.076;18.208;2024-02-21T05:33:38;25.05;;;8.35;;
21705;SDS011;11014;53.076;18.208;2024-02-21T05:36:06;18.67;;;7.55;;
21705;SDS011;11014;53.076;18.208;2024-02-21T05:38:35;15.88;;;7.82;;
21705;SDS011;11014;53.076;18.208;2024-02-21T05:41:04;20.80;;;8.52;;
21705;SDS011;11014;53.076;18.208;2024-02-21T05:43:35;21.20;;;8.68;;
21705;SDS011;11014;53.076;18.208;2024-02-21T05:46:03;19.50;;;8.13;;
21705;SDS011;11014;53.076;18.208;2024-02-21T05:48:32;23.27;;;8.60;;
21705;SDS011;11014;53.076;18.208;2024-02-21T05:51:07;23.20;;;8.55;;
21705;SDS011;11014;53.076;18.208;2024-02-21T05:53:35;19.25;;;8.77;;
21705;SDS011;11014;53.076;18.208;2024-02-21T05:56:04;22.02;;;8.55;;
21705;SDS011;11014;53.076;18.208;2024-02-21T05:58:41;19.33;;;8.90;;
21705;SDS011;11014;53.076;18.208;2024-02-21T06:04:04;25.38;;;9.73;;
21705;SDS011;11014;53.076;18.208;2024-02-21T06:06:33;28.67;;;8.73;;
21705;SDS011;11014;53.076;18.208;2024-02-21T06:09:02;18.55;;;7.82;;
21705;SDS011;11014;53.076;18.208;2024-02-21T06:11:31;25.38;;;9.05;;
21705;SDS011;11014;53.076;18.208;2024-02-21T06:14:00;22.00;;;8.70;;
21705;SDS011;11014;53.076;18.208;2024-02-21T06:16:29;19.25;;;8.10;;
21705;SDS011;11014;53.076;18.208;2024-02-21T06:18:57;27.20;;;9.90;;
21705;SDS011;11014;53.076;18.208;2024-02-21T06:21:28;26.13;;;9.43;;
21705;SDS011;11014;53.076;18.208;2024-02-21T06:23:58;26.08;;;10.25;;
21705;SDS011;11014;53.076;18.208;2024-02-21T06:26:27;29.05;;;10.80;;
21705;SDS011;11014;53.076;18.208;2024-02-21T06:28:56;30.58;;;9.50;;
21705;SDS011;11014;53.076;18.208;2024-02-21T06:31:27;36.63;;;10.48;;
21705;SDS011;11014;53.076;18.208;2024-02-21T06:33:56;28.90;;;10.02;;
21705;SDS011;11014;53.076;18.208;2024-02-21T06:36:26;23.63;;;9.48;;
21705;SDS011;11014;53.076;18.208;2024-02-21T06:38:54;24.10;;;8.77;;
21705;SDS011;11014;53.076;18.208;2024-02-21T06:41:23;25.02;;;9.85;;
21705;SDS011;11014;53.076;18.208;2024-02-21T06:43:51;22.27;;;10.05;;
21705;SDS011;11014;53.076;18.208;2024-02-21T06:46:27;22.67;;;10.40;;
21705;SDS011;11014;53.076;18.208;2024-02-21T06:49:02;25.03;;;10.37;;
21705;SDS011;11014;53.076;18.208;2024-02-21T06:51:34;21.85;;;10.15;;
21705;SDS011;11014;53.076;18.208;2024-02-21T06:54:02;22.33;;;10.05;;
21705;SDS011;11014;53.076;18.208;2024-02-21T06:56:32;21.27;;;8.65;;
21705;SDS011;11014;53.076;18.208;2024-02-21T06:59:00;23.70;;;10.02;;
21705;SDS011;11014;53.076;18.208;2024-02-21T07:01:29;26.92;;;10.68;;
21705;SDS011;11014;53.076;18.208;2024-02-21T07:03:58;25.33;;;10.40;;
21705;SDS011;11014;53.076;18.208;2024-02-21T07:06:27;28.90;;;11.38;;
21705;SDS011;11014;53.076;18.208;2024-02-21T07:08:58;22.38;;;9.52;;
21705;SDS011;11014;53.076;18.208;2024-02-21T07:11:26;25.05;;;10.60;;
21705;SDS011;11014;53.076;18.208;2024-02-21T07:13:55;22.63;;;8.93;;
21705;SDS011;11014;53.076;18.208;2024-02-21T07:16:24;30.67;;;10.73;;
21705;SDS011;11014;53.076;18.208;2024-02-21T07:19:33;29.40;;;11.05;;
21705;SDS011;11014;53.076;18.208;2024-02-21T07:22:04;23.15;;;10.73;;
21705;SDS011;11014;53.076;18.208;2024-02-21T07:24:32;26.63;;;10.10;;
21705;SDS011;11014;53.076;18.208;2024-02-21T07:27:01;24.73;;;11.25;;
21705;SDS011;11014;53.076;18.208;2024-02-21T07:29:32;25.13;;;10.52;;
21705;SDS011;11014;53.076;18.208;2024-02-21T07:32:02;25.30;;;10.75;;
21705;SDS011;11014;53.076;18.208;2024-02-21T07:34:30;26.85;;;10.88;;
21705;SDS011;11014;53.076;18.208;2024-02-21T07:36:59;26.17;;;10.45;;
21705;SDS011;11014;53.076;18.208;2024-02-21T07:39:29;25.30;;;10.55;;
21705;SDS011;11014;53.076;18.208;2024-02-21T07:41:58;26.17;;;9.80;;
21705;SDS011;11014;53.076;18.208;2024-02-21T07:44:26;24.52;;;10.57;;
21705;SDS011;11014;53.076;18.208;2024-02-21T07:46:55;27.20;;;10.50;;
21705;SDS011;11014;53.076;18.208;2024-02-21T07:49:24;29.23;;;10.70;;
21705;SDS011;11014;53.076;18.208;2024-02-21T07:51:53;24.92;;;10.40;;
21705;SDS011;11014;53.076;18.208;2024-02-21T07:54:22;24.20;;;10.45;;
21705;SDS011;11014;53.076;18.208;2024-02-21T07:56:51;25.13;;;10.43;;
21705;SDS011;11014;53.076;18.208;2024-02-21T07:59:19;29.08;;;10.35;;
21705;SDS011;11014;53.076;18.208;2024-02-21T08:01:49;29.05;;;10.05;;
21705;SDS011;11014;53.076;18.208;2024-02-21T08:04:17;20.95;;;10.27;;
21705;SDS011;11014;53.076;18.208;2024-02-21T08:06:50;26.75;;;10.55;;
21705;SDS011;11014;53.076;18.208;2024-02-21T08:09:34;29.10;;;9.77;;
21705;SDS011;11014;53.076;18.208;2024-02-21T08:12:04;29.80;;;10.40;;
21705;SDS011;11014;53.076;18.208;2024-02-21T08:14:33;22.85;;;7.75;;
21705;SDS011;11014;53.076;18.208;2024-02-21T08:17:27;20.85;;;9.10;;
21705;SDS011;11014;53.076;18.208;2024-02-21T08:19:56;30.15;;;9.38;;
21705;SDS011;11014;53.076;18.208;2024-02-21T08:22:25;23.48;;;9.43;;
21705;SDS011;11014;53.076;18.208;2024-02-21T08:25:02;23.00;;;9.52;;
21705;SDS011;11014;53.076;18.208;2024-02-21T08:27:41;21.95;;;9.25;;
21705;SDS011;11014;53.076;18.208;2024-02-21T08:30:09;22.75;;;8.75;;
21705;SDS011;11014;53.076;18.208;2024-02-21T08:35:33;22.73;;;8.90;;
21705;SDS011;11014;53.076;18.208;2024-02-21T08:38:02;23.33;;;8.57;;
21705;SDS011;11014;53.076;18.208;2024-02-21T08:43:24;21.83;;;8.82;;
21705;SDS011;11014;53.076;18.208;2024-02-21T08:45:53;21.55;;;8.68;;
21705;SDS011;11014;53.076;18.208;2024-02-21T08:48:22;19.67;;;8.88;;
21705;SDS011;11014;53.076;18.208;2024-02-21T08:50:51;16.98;;;7.55;;
21705;SDS011;11014;53.076;18.208;2024-02-21T08:53:19;18.20;;;9.27;;
21705;SDS011;11014;53.076;18.208;2024-02-21T08:55:49;24.88;;;9.30;;
21705;SDS011;11014;53.076;18.208;2024-02-21T08:58:17;22.50;;;8.65;;
21705;SDS011;11014;53.076;18.208;2024-02-21T09:00:49;19.08;;;5.75;;
21705;SDS011;11014;53.076;18.208;2024-02-21T09:03:19;18.77;;;8.25;;
21705;SDS011;11014;53.076;18.208;2024-02-21T09:05:56;23.00;;;9.30;;
21705;SDS011;11014;53.076;18.208;2024-02-21T10:31:39;18.85;;;9.82;;
21705;SDS011;11014;53.076;18.208;2024-02-21T10:34:08;22.08;;;10.27;;
21705;SDS011;11014;53.076;18.208;2024-02-21T10:36:48;19.30;;;10.80;;
21705;SDS011;11014;53.076;18.208;2024-02-21T10:43:24;19.02;;;9.68;;
21705;SDS011;11014;53.076;18.208;2024-02-21T10:46:57;21.30;;;10.27;;
21705;SDS011;11014;53.076;18.208;2024-02-21T10:49:41;18.27;;;9.02;;
21705;SDS011;11014;53.076;18.208;2024-02-21T10:52:22;15.95;;;8.40;;
21705;SDS011;11014;53.076;18.208;2024-02-21T10:55:04;17.50;;;9.50;;
21705;SDS011;11014;53.076;18.208;2024-02-21T10:57:44;14.32;;;7.40;;
21705;SDS011;11014;53.076;18.208;2024-02-21T11:00:15;19.75;;;10.48;;
21705;SDS011;11014;53.076;18.208;2024-02-21T11:03:07;12.38;;;7.47;;
21705;SDS011;11014;53.076;18.208;2024-02-21T11:47:57;25.02;;;10.55;;
21705;SDS011;11014;53.076;18.208;2024-02-21T11:50:28;20.20;;;10.20;;
21705;SDS011;11014;53.076;18.208;2024-02-21T11:52:57;19.83;;;10.85;;
21705;SDS011;11014;53.076;18.208;2024-02-21T11:55:26;18.33;;;10.60;;
21705;SDS011;11014;53.076;18.208;2024-02-21T11:57:55;17.23;;;9.88;;
21705;SDS011;11014;53.076;18.208;2024-02-21T12:00:25;15.93;;;7.53;;
21705;SDS011;11014;53.076;18.208;2024-02-21T12:02:54;14.85;;;8.82;;
21705;SDS011;11014;53.076;18.208;2024-02-21T12:05:31;13.32;;;7.55;;
21705;SDS011;11014;53.076;18.208;2024-02-21T12:08:01;17.58;;;10.00;;
21705;SDS011;11014;53.076;18.208;2024-02-21T12:10:30;18.38;;;10.55;;
21705;SDS011;11014;53.076;18.208;2024-02-21T12:13:05;14.38;;;6.72;;
21705;SDS011;11014;53.076;18.208;2024-02-21T12:15:36;14.45;;;9.32;;
21705;SDS011;11014;53.076;18.208;2024-02-21T12:18:06;14.35;;;8.85;;
21705;SDS011;11014;53.076;18.208;2024-02-21T12:20:38;17.63;;;9.27;;
21705;SDS011;11014;53.076;18.208;2024-02-21T12:23:10;13.57;;;8.55;;
21705;SDS011;11014;53.076;18.208;2024-02-21T12:25:40;11.70;;;7.03;;
21705;SDS011;11014;53.076;18.208;2024-02-21T12:28:09;18.30;;;9.32;;
21705;SDS011;11014;53.076;18.208;2024-02-21T12:30:38;18.00;;;9.18;;
21705;SDS011;11014;53.076;18.208;2024-02-21T12:33:09;16.30;;;9.30;;
21705;SDS011;11014;53.076;18.208;2024-02-21T12:35:38;15.85;;;9.38;;
21705;SDS011;11014;53.076;18.208;2024-02-21T12:38:06;13.18;;;7.53;;
21705;SDS011;11014;53.076;18.208;2024-02-21T12:40:35;17.17;;;8.85;;
21705;SDS011;11014;53.076;18.208;2024-02-21T12:43:04;18.33;;;9.32;;
21705;SDS011;11014;53.076;18.208;2024-02-21T12:45:32;13.15;;;8.32;;
21705;SDS011;11014;53.076;18.208;2024-02-21T12:48:06;19.90;;;10.13;;
21705;SDS011;11014;53.076;18.208;2024-02-21T12:50:35;15.38;;;7.38;;
21705;SDS011;11014;53.076;18.208;2024-02-21T12:53:03;18.15;;;7.55;;
21705;SDS011;11014;53.076;18.208;2024-02-21T12:55:43;17.75;;;9.05;;
21705;SDS011;11014;53.076;18.208;2024-02-21T12:58:12;18.70;;;9.60;;
21705;SDS011;11014;53.076;18.208;2024-02-21T13:00:41;17.20;;;8.75;;
21705;SDS011;11014;53.076;18.208;2024-02-21T13:03:10;14.60;;;5.07;;
21705;SDS011;11014;53.076;18.208;2024-02-21T13:08:39;17.23;;;10.20;;
21705;SDS011;11014;53.076;18.208;2024-02-21T13:11:07;16.08;;;7.88;;
21705;SDS011;11014;53.076;18.208;2024-02-21T13:13:36;15.65;;;7.32;;
21705;SDS011;11014;53.076;18.208;2024-02-21T13:16:05;16.77;;;10.18;;
21705;SDS011;11014;53.076;18.208;2024-02-21T13:18:37;15.32;;;9.15;;
21705;SDS011;11014;53.076;18.208;2024-02-21T13:21:11;17.98;;;9.27;;
21705;SDS011;11014;53.076;18.208;2024-02-21T13:23:40;10.00;;;6.03;;
21705;SDS011;11014;53.076;18.208;2024-02-21T13:26:10;18.77;;;8.90;;
21705;SDS011;11014;53.076;18.208;2024-02-21T13:28:39;18.73;;;9.70;;
21705;SDS011;11014;53.076;18.208;2024-02-21T13:31:07;16.77;;;9.85;;
21705;SDS011;11014;53.076;18.208;2024-02-21T13:33:36;15.85;;;8.40;;
21705;SDS011;11014;53.076;18.208;2024-02-21T13:36:05;18.13;;;8.73;;
21705;SDS011;11014;53.076;18.208;2024-02-21T13:38:34;14.13;;;8.68;;
21705;SDS011;11014;53.076;18.208;2024-02-21T13:41:02;18.00;;;8.32;;
21705;SDS011;11014;53.076;18.208;2024-02-21T13:43:34;16.65;;;9.55;;
21705;SDS011;11014;53.076;18.208;2024-02-21T13:46:03;14.70;;;8.82;;
21705;SDS011;11014;53.076;18.208;2024-02-21T13:48:33;14.68;;;7.97;;
21705;SDS011;11014;53.076;18.208;2024-02-21T13:51:02;17.13;;;9.60;;
21705;SDS011;11014;53.076;18.208;2024-02-21T13:53:31;21.58;;;10.02;;
21705;SDS011;11014;53.076;18.208;2024-02-21T13:55:59;19.58;;;9.55;;
21705;SDS011;11014;53.076;18.208;2024-02-21T13:58:29;18.20;;;9.77;;
21705;SDS011;11014;53.076;18.208;2024-02-21T14:00:58;16.48;;;9.40;;
21705;SDS011;11014;53.076;18.208;2024-02-21T14:03:27;12.45;;;8.38;;
21705;SDS011;11014;53.076;18.208;2024-02-21T14:05:56;14.48;;;8.50;;
21705;SDS011;11014;53.076;18.208;2024-02-21T14:08:24;22.50;;;9.90;;
21705;SDS011;11014;53.076;18.208;2024-02-21T14:10:53;16.08;;;8.80;;
21705;SDS011;11014;53.076;18.208;2024-02-21T14:13:24;17.80;;;9.33;;
21705;SDS011;11014;53.076;18.208;2024-02-21T14:15:53;22.48;;;10.43;;
21705;SDS011;11014;53.076;18.208;2024-02-21T14:18:21;21.80;;;11.18;;
21705;SDS011;11014;53.076;18.208;2024-02-21T14:20:50;18.38;;;7.88;;
21705;SDS011;11014;53.076;18.208;2024-02-21T14:23:19;18.23;;;9.18;;
21705;SDS011;11014;53.076;18.208;2024-02-21T14:25:47;19.90;;;8.52;;
21705;SDS011;11014;53.076;18.208;2024-02-21T14:28:16;16.52;;;8.77;;
21705;SDS011;11014;53.076;18.208;2024-02-21T14:30:48;14.32;;;7.97;;
21705;SDS011;11014;53.076;18.208;2024-02-21T14:33:22;17.40;;;9.02;;
21705;SDS011;11014;53.076;18.208;2024-02-21T14:35:50;19.98;;;9.43;;
21705;SDS011;11014;53.076;18.208;2024-02-21T14:38:19;12.00;;;6.70;;
21705;SDS011;11014;53.076;18.208;2024-02-21T14:40:48;17.20;;;8.40;;
21705;SDS011;11014;53.076;18.208;2024-02-21T14:43:17;22.83;;;9.20;;
21705;SDS011;11014;53.076;18.208;2024-02-21T14:45:45;19.67;;;9.68;;
21705;SDS011;11014;53.076;18.208;2024-02-21T14:48:16;15.77;;;9.52;;
21705;SDS011;11014;53.076;18.208;2024-02-21T14:50:45;19.35;;;8.52;;
21705;SDS011;11014;53.076;18.208;2024-02-21T14:53:15;18.63;;;8.25;;
21705;SDS011;11014;53.076;18.208;2024-02-21T14:56:13;14.07;;;7.47;;
21705;SDS011;11014;53.076;18.208;2024-02-21T14:58:43;17.38;;;9.10;;
21705;SDS011;11014;53.076;18.208;2024-02-21T15:01:12;19.15;;;8.98;;
21705;SDS011;11014;53.076;18.208;2024-02-21T15:03:41;18.77;;;8.75;;
21705;SDS011;11014;53.076;18.208;2024-02-21T15:06:10;13.38;;;6.85;;
21705;SDS011;11014;53.076;18.208;2024-02-21T15:08:40;14.73;;;7.35;;
21705;SDS011;11014;53.076;18.208;2024-02-21T15:11:09;14.48;;;8.98;;
21705;SDS011;11014;53.076;18.208;2024-02-21T15:13:38;15.02;;;9.10;;
21705;SDS011;11014;53.076;18.208;2024-02-21T15:16:06;15.57;;;9.02;;
21705;SDS011;11014;53.076;18.208;2024-02-21T15:18:35;18.70;;;8.27;;
21705;SDS011;11014;53.076;18.208;2024-02-21T15:21:06;12.55;;;8.38;;
21705;SDS011;11014;53.076;18.208;2024-02-21T15:23:35;15.13;;;7.78;;
21705;SDS011;11014;53.076;18.208;2024-02-21T15:26:04;16.27;;;7.78;;
21705;SDS011;11014;53.076;18.208;2024-02-21T15:28:33;17.63;;;8.95;;
21705;SDS011;11014;53.076;18.208;2024-02-21T15:31:02;16.05;;;8.80;;
21705;SDS011;11014;53.076;18.208;2024-02-21T15:33:32;20.23;;;9.23;;
21705;SDS011;11014;53.076;18.208;2024-02-21T15:36:04;18.83;;;9.93;;
21705;SDS011;11014;53.076;18.208;2024-02-21T15:38:33;13.68;;;8.60;;
21705;SDS011;11014;53.076;18.208;2024-02-21T15:41:02;17.75;;;9.50;;
21705;SDS011;11014;53.076;18.208;2024-02-21T15:43:31;17.98;;;10.32;;
21705;SDS011;11014;53.076;18.208;2024-02-21T15:46:00;21.83;;;9.57;;
21705;SDS011;11014;53.076;18.208;2024-02-21T15:48:29;18.38;;;10.65;;
21705;SDS011;11014;53.076;18.208;2024-02-21T15:50:58;20.15;;;11.05;;
21705;SDS011;11014;53.076;18.208;2024-02-21T15:53:27;24.27;;;11.75;;
21705;SDS011;11014;53.076;18.208;2024-02-21T15:55:55;22.73;;;12.13;;
21705;SDS011;11014;53.076;18.208;2024-02-21T15:58:24;26.73;;;12.38;;
21705;SDS011;11014;53.076;18.208;2024-02-21T16:00:53;23.25;;;12.70;;
21705;SDS011;11014;53.076;18.208;2024-02-21T16:03:21;29.02;;;14.55;;
21705;SDS011;11014;53.076;18.208;2024-02-21T16:05:50;27.90;;;14.57;;
21705;SDS011;11014;53.076;18.208;2024-02-21T16:08:25;31.98;;;15.88;;
21705;SDS011;11014;53.076;18.208;2024-02-21T16:19:59;26.45;;;14.13;;
21705;SDS011;11014;53.076;18.208;2024-02-21T16:22:29;32.15;;;15.70;;
21705;SDS011;11014;53.076;18.208;2024-02-21T16:25:00;29.98;;;15.45;;
21705;SDS011;11014;53.076;18.208;2024-02-21T16:27:28;24.02;;;12.43;;
21705;SDS011;11014;53.076;18.208;2024-02-21T16:29:57;29.45;;;15.50;;
21705;SDS011;11014;53.076;18.208;2024-02-21T16:32:26;25.50;;;14.40;;
21705;SDS011;11014;53.076;18.208;2024-02-21T16:34:56;28.95;;;14.13;;
21705;SDS011;11014;53.076;18.208;2024-02-21T16:37:24;19.95;;;9.15;;
21705;SDS011;11014;53.076;18.208;2024-02-21T16:39:53;22.77;;;12.23;;
21705;SDS011;11014;53.076;18.208;2024-02-21T16:42:21;25.85;;;14.95;;
21705;SDS011;11014;53.076;18.208;2024-02-21T16:44:50;27.65;;;14.00;;
21705;SDS011;11014;53.076;18.208;2024-02-21T16:47:19;25.83;;;12.85;;
21705;SDS011;11014;53.076;18.208;2024-02-21T16:49:47;29.15;;;14.68;;
21705;SDS011;11014;53.076;18.208;2024-02-21T16:52:17;27.42;;;12.73;;
21705;SDS011;11014;53.076;18.208;2024-02-21T16:54:47;30.85;;;15.70;;
21705;SDS011;11014;53.076;18.208;2024-02-21T16:57:15;25.02;;;12.88;;
21705;SDS011;11014;53.076;18.208;2024-02-21T16:59:44;33.97;;;15.00;;
21705;SDS011;11014;53.076;18.208;2024-02-21T17:02:12;29.25;;;15.32;;
21705;SDS011;11014;53.076;18.208;2024-02-21T17:04:42;25.27;;;12.48;;
21705;SDS011;11014;53.076;18.208;2024-02-21T17:07:11;29.83;;;14.23;;
21705;SDS011;11014;53.076;18.208;2024-02-21T17:09:40;23.23;;;13.02;;
21705;SDS011;11014;53.076;18.208;2024-02-21T17:12:08;22.20;;;12.35;;
21705;SDS011;11014;53.076;18.208;2024-02-21T17:14:37;25.48;;;12.52;;
21705;SDS011;11014;53.076;18.208;2024-02-21T17:17:07;28.40;;;12.52;;
21705;SDS011;11014;53.076;18.208;2024-02-21T17:19:36;29.90;;;15.25;;
21705;SDS011;11014;53.076;18.208;2024-02-21T17:22:05;29.65;;;16.02;;
21705;SDS011;11014;53.076;18.208;2024-02-21T17:24:34;25.40;;;11.20;;
21705;SDS011;11014;53.076;18.208;2024-02-21T17:27:03;25.60;;;12.77;;
21705;SDS011;11014;53.076;18.208;2024-02-21T17:29:34;22.33;;;11.68;;
21705;SDS011;11014;53.076;18.208;2024-02-21T17:32:03;27.23;;;11.90;;
21705;SDS011;11014;53.076;18.208;2024-02-21T17:34:32;23.88;;;11.65;;
21705;SDS011;11014;53.076;18.208;2024-02-21T17:41:51;20.75;;;11.38;;
21705;SDS011;11014;53.076;18.208;2024-02-21T18:53:51;21.27;;;12.15;;
21705;SDS011;11014;53.076;18.208;2024-02-21T19:01:05;26.50;;;11.75;;
21705;SDS011;11014;53.076;18.208;2024-02-21T19:08:57;24.08;;;10.45;;
21705;SDS011;11014;53.076;18.208;2024-02-21T19:11:27;22.00;;;11.52;;
21705;SDS011;11014;53.076;18.208;2024-02-21T19:14:37;20.30;;;10.43;;
21705;SDS011;11014;53.076;18.208;2024-02-21T19:17:05;16.40;;;9.45;;
21705;SDS011;11014;53.076;18.208;2024-02-21T19:19:33;22.88;;;10.07;;
21705;SDS011;11014;53.076;18.208;2024-02-21T19:22:03;21.02;;;10.77;;
21705;SDS011;11014;53.076;18.208;2024-02-21T19:24:33;26.35;;;13.27;;
21705;SDS011;11014;53.076;18.208;2024-02-21T19:27:02;26.58;;;13.60;;
21705;SDS011;11014;53.076;18.208;2024-02-21T19:29:31;22.35;;;13.90;;